createdAt,value
2023-01-26T00:00:01.421Z,144.10
2023-01-26T00:02:46.603Z,138.43
2023-01-26T00:05:32.014Z,135.30
2023-01-26T00:08:17.742Z,131.93
2023-01-26T00:11:07.417Z,140.77
2023-01-26T00:13:53.637Z,138.50
2023-01-26T00:16:38.933Z,142.13
2023-01-26T00:19:23.797Z,146.57
2023-01-26T00:22:08.563Z,143.80
2023-01-26T00:24:53.909Z,146.80
2023-01-26T00:27:39.191Z,143.23
2023-01-26T00:30:24.463Z,142.33
2023-01-26T00:33:09.637Z,142.77
2023-01-26T00:35:55.069Z,147.57
2023-01-26T00:38:41.380Z,141.07
2023-01-26T00:41:26.517Z,142.13
2023-01-26T00:44:11.688Z,139.20
2023-01-26T00:46:56.891Z,139.00
2023-01-26T00:49:42.212Z,144.20
2023-01-26T00:52:27.213Z,138.20
2023-01-26T00:55:12.175Z,137.40
2023-01-26T00:57:57.081Z,135.73
2023-01-26T01:00:42.387Z,133.27
2023-01-26T01:03:27.944Z,136.20
2023-01-26T01:06:13.459Z,140.30
2023-01-26T01:08:59.717Z,139.40
2023-01-26T01:11:44.471Z,132.03
2023-01-26T01:14:29.313Z,131.30
2023-01-26T01:17:14.364Z,124.10
2023-01-26T01:19:59.293Z,138.03
2023-01-26T01:22:44.643Z,133.40
2023-01-26T01:25:29.479Z,134.40
2023-01-26T01:28:14.785Z,132.63
2023-01-26T01:31:03.377Z,133.50
2023-01-26T01:33:48.395Z,135.10
2023-01-26T01:36:33.307Z,133.57
2023-01-26T01:39:18.105Z,138.63
2023-01-26T01:42:03.034Z,133.90
2023-01-26T01:45:19.603Z,145.83
2023-01-26T01:48:13.085Z,152.30
2023-01-26T01:51:03.971Z,151.20
2023-01-26T01:53:51.808Z,155.83
2023-01-26T01:56:39.350Z,156.23
2023-01-26T01:59:25.293Z,157.43
2023-01-26T02:02:11.298Z,159.90
2023-01-26T02:05:00.483Z,145.03
2023-01-26T02:07:46.519Z,147.27
2023-01-26T02:10:32.791Z,153.37
2023-01-26T02:13:20.076Z,156.83
2023-01-26T02:16:05.788Z,156.97
2023-01-26T02:18:50.683Z,172.13
2023-01-26T02:21:35.602Z,189.23
2023-01-26T02:24:32.743Z,172.33
2023-01-26T02:27:18.319Z,176.30
2023-01-26T02:30:04.987Z,176.80
2023-01-26T02:32:50.269Z,180.37
2023-01-26T02:35:37.937Z,187.27
2023-01-26T02:38:28.806Z,191.57
2023-01-26T02:41:16.897Z,201.77
2023-01-26T02:44:04.648Z,192.20
2023-01-26T02:46:49.859Z,196.37
2023-01-26T02:49:35.201Z,207.97
2023-01-26T02:52:22.946Z,196.93
2023-01-26T02:55:08.787Z,186.97
2023-01-26T02:57:57.322Z,194.27
2023-01-26T03:00:42.675Z,201.03
2023-01-26T03:03:29.024Z,207.63
2023-01-26T03:06:15.238Z,204.23
2023-01-26T03:09:00.598Z,228.70
2023-01-26T03:11:45.415Z,242.47
2023-01-26T03:14:31.071Z,220.00
2023-01-26T03:17:16.271Z,210.87
2023-01-26T03:20:02.009Z,214.97
2023-01-26T03:22:47.323Z,204.43
2023-01-26T03:25:32.684Z,223.77
2023-01-26T03:28:18.197Z,210.47
2023-01-26T03:31:07.191Z,211.77
2023-01-26T03:33:52.076Z,216.90
2023-01-26T03:36:37.595Z,216.40
2023-01-26T03:39:22.714Z,216.43
2023-01-26T03:42:08.019Z,254.13
2023-01-26T03:44:53.175Z,239.87
2023-01-26T03:47:38.593Z,221.53
2023-01-26T03:50:24.095Z,242.20
2023-01-26T03:53:17.441Z,229.13
2023-01-26T03:56:04.977Z,259.50
2023-01-26T03:58:58.336Z,208.93
2023-01-26T04:01:47.352Z,222.87
2023-01-26T04:04:33.088Z,215.10
2023-01-26T04:07:18.494Z,195.03
2023-01-26T04:10:03.647Z,199.40
2023-01-26T04:12:48.940Z,194.73
2023-01-26T04:15:36.113Z,189.93
2023-01-26T04:18:21.543Z,199.37
2023-01-26T04:21:07.541Z,208.03
2023-01-26T04:23:53.584Z,192.77
2023-01-26T04:26:38.894Z,189.23
2023-01-26T04:29:24.496Z,184.60
2023-01-26T04:32:09.724Z,180.43
2023-01-26T04:34:55.135Z,223.60
2023-01-26T04:37:40.934Z,201.63
2023-01-26T04:40:26.047Z,213.83
2023-01-26T04:43:11.210Z,202.13
2023-01-26T04:46:07.559Z,215.83
2023-01-26T04:48:52.892Z,202.43
2023-01-26T04:51:38.106Z,205.13
2023-01-26T04:54:23.399Z,259.13
2023-01-26T04:57:08.994Z,208.07
2023-01-26T04:59:54.195Z,211.73
2023-01-26T05:02:38.951Z,229.50
2023-01-26T05:05:23.884Z,208.93
2023-01-26T05:08:09.251Z,216.03
2023-01-26T05:10:54.598Z,198.23
2023-01-26T05:13:40.054Z,194.77
2023-01-26T05:16:26.142Z,199.20
2023-01-26T05:19:11.694Z,212.87
2023-01-26T05:21:56.724Z,202.17
2023-01-26T05:24:45.015Z,199.03
2023-01-26T05:27:30.566Z,200.07
2023-01-26T05:30:16.418Z,220.90
2023-01-26T05:33:03.227Z,204.40
2023-01-26T05:35:49.184Z,209.63
2023-01-26T05:38:34.681Z,212.07
2023-01-26T05:41:20.096Z,201.43
2023-01-26T05:44:05.312Z,204.23
2023-01-26T05:46:53.602Z,199.00
2023-01-26T05:49:39.170Z,252.10
2023-01-26T05:52:24.646Z,215.93
2023-01-26T05:55:10.210Z,229.13
2023-01-26T05:57:55.400Z,270.57
2023-01-26T06:00:40.771Z,216.73
2023-01-26T06:03:26.076Z,195.40
2023-01-26T06:06:10.886Z,243.90
2023-01-26T06:08:56.439Z,237.23
2023-01-26T06:11:42.043Z,207.67
2023-01-26T06:14:27.328Z,209.97
2023-01-26T06:17:14.604Z,181.87
2023-01-26T06:19:59.846Z,182.27
2023-01-26T06:22:44.881Z,185.07
2023-01-26T06:25:29.922Z,184.30
2023-01-26T06:28:14.899Z,211.57
2023-01-26T06:31:04.299Z,195.07
2023-01-26T06:33:50.106Z,170.43
2023-01-26T06:36:35.103Z,194.33
2023-01-26T06:39:20.047Z,197.70
2023-01-26T06:42:05.346Z,220.90
2023-01-26T06:44:50.742Z,182.50
2023-01-26T06:47:36.982Z,180.97
2023-01-26T06:50:30.964Z,173.77
2023-01-26T06:53:33.011Z,172.67
2023-01-26T06:56:21.377Z,184.00
2023-01-26T06:59:06.818Z,219.83
2023-01-26T07:01:51.801Z,191.53
2023-01-26T07:04:36.837Z,249.23
2023-01-26T07:07:21.762Z,209.53
2023-01-26T07:10:07.377Z,216.40
2023-01-26T07:12:52.386Z,192.40
2023-01-26T07:15:37.235Z,194.07
2023-01-26T07:18:22.476Z,210.07
2023-01-26T07:21:11.334Z,239.53
2023-01-26T07:23:56.479Z,197.97
2023-01-26T07:26:41.514Z,250.00
2023-01-26T07:29:26.420Z,235.63
2023-01-26T07:32:11.993Z,245.63
2023-01-26T07:34:57.105Z,227.07
2023-01-26T07:37:43.519Z,267.87
2023-01-26T07:40:28.630Z,256.23
2023-01-26T07:43:14.524Z,212.87
2023-01-26T07:45:59.415Z,241.30
2023-01-26T07:48:44.243Z,194.33
2023-01-26T07:51:29.200Z,204.40
2023-01-26T07:54:14.581Z,209.37
2023-01-26T07:57:00.233Z,242.33
2023-01-26T07:59:45.394Z,213.60
2023-01-26T08:02:31.425Z,259.23
2023-01-26T08:05:16.942Z,210.83
2023-01-26T08:08:01.943Z,233.57
2023-01-26T08:10:46.789Z,217.43
2023-01-26T08:13:35.822Z,246.57
2023-01-26T08:16:21.515Z,315.63
2023-01-26T08:19:06.743Z,246.50
2023-01-26T08:21:51.468Z,309.03
2023-01-26T08:24:36.492Z,226.23
2023-01-26T08:27:21.478Z,227.63
2023-01-26T08:30:07.617Z,267.07
2023-01-26T08:32:52.689Z,215.23
2023-01-26T08:35:37.521Z,290.33
2023-01-26T08:38:22.551Z,271.97
2023-01-26T08:41:07.641Z,209.80
2023-01-26T08:43:52.923Z,279.50
2023-01-26T08:46:38.460Z,207.47
2023-01-26T08:49:24.806Z,204.83
2023-01-26T08:52:09.991Z,184.40
2023-01-26T08:54:54.779Z,187.60
2023-01-26T08:57:39.628Z,189.57
2023-01-26T09:00:25.144Z,177.80
2023-01-26T09:03:10.436Z,208.57
2023-01-26T09:05:59.963Z,192.47
2023-01-26T09:08:45.469Z,241.47
2023-01-26T09:11:30.774Z,241.67
2023-01-26T09:14:15.558Z,233.13
2023-01-26T09:17:00.487Z,203.73
2023-01-26T09:19:46.045Z,214.63
2023-01-26T09:22:31.489Z,202.17
2023-01-26T09:25:16.758Z,205.17
2023-01-26T09:28:05.536Z,188.40
2023-01-26T09:30:50.956Z,196.63
2023-01-26T09:33:36.851Z,226.17
2023-01-26T09:36:22.133Z,186.50
2023-01-26T09:39:07.643Z,211.47
2023-01-26T09:42:05.269Z,204.03
2023-01-26T09:45:29.141Z,174.20
2023-01-26T09:48:20.273Z,189.87
2023-01-26T09:51:20.996Z,165.93
2023-01-26T09:54:24.247Z,176.13
2023-01-26T09:57:16.206Z,167.30
2023-01-26T10:00:25.809Z,188.97
2023-01-26T10:03:22.734Z,178.93
2023-01-26T10:06:21.238Z,186.73
2023-01-26T10:09:28.319Z,165.63
2023-01-26T10:12:19.291Z,213.47
2023-01-26T10:15:15.912Z,163.53
2023-01-26T10:18:05.936Z,170.90
2023-01-26T10:20:55.370Z,181.27
2023-01-26T10:23:47.956Z,163.13
2023-01-26T10:26:33.693Z,162.57
2023-01-26T10:29:18.895Z,155.37
2023-01-26T10:32:04.215Z,158.03
2023-01-26T10:34:51.183Z,180.30
2023-01-26T10:37:36.726Z,151.03
2023-01-26T10:40:22.114Z,135.70
2023-01-26T10:43:17.681Z,135.97
2023-01-26T10:46:04.171Z,136.53
2023-01-26T10:48:58.142Z,121.13
2023-01-26T10:52:06.298Z,139.27
2023-01-26T10:55:09.155Z,127.47
2023-01-26T10:57:54.682Z,127.93
2023-01-26T11:00:41.053Z,151.80
2023-01-26T11:03:27.527Z,137.53
2023-01-26T11:06:17.427Z,120.97
2023-01-26T11:09:19.620Z,123.63
2023-01-26T11:12:04.987Z,114.97
2023-01-26T11:15:01.917Z,134.80
2023-01-26T11:17:59.256Z,112.70
2023-01-26T11:21:09.091Z,124.53
2023-01-26T11:24:07.634Z,105.53
2023-01-26T11:27:34.082Z,110.93
2023-01-26T11:30:43.671Z,105.50
2023-01-26T11:33:31.927Z,100.00
2023-01-26T11:36:35.892Z,92.73
2023-01-26T11:39:54.103Z,91.23
2023-01-26T11:42:51.713Z,92.60
2023-01-26T11:45:36.753Z,96.27
2023-01-26T11:48:38.106Z,96.93
2023-01-26T11:51:30.740Z,112.27
2023-01-26T11:54:42.610Z,108.83
2023-01-26T11:58:01.384Z,118.60
2023-01-26T12:00:46.734Z,114.13
2023-01-26T12:03:46.735Z,118.03
2023-01-26T12:06:37.811Z,97.03
2023-01-26T12:09:42.871Z,113.17
2023-01-26T12:12:33.942Z,103.53
2023-01-26T12:15:32.842Z,110.53
2023-01-26T12:18:29.892Z,112.37
2023-01-26T12:21:21.155Z,106.83
2023-01-26T12:24:35.736Z,106.53
2023-01-26T12:27:55.026Z,104.40
2023-01-26T12:30:48.574Z,97.37
2023-01-26T12:33:35.140Z,98.13
2023-01-26T12:36:40.020Z,93.10
2023-01-26T12:39:34.551Z,95.27
2023-01-26T12:42:39.693Z,99.93
2023-01-26T12:45:32.526Z,91.87
2023-01-26T12:48:29.759Z,87.33
2023-01-26T12:51:22.108Z,83.53
2023-01-26T12:54:36.437Z,88.63
2023-01-26T12:57:27.324Z,73.37
2023-01-26T13:00:22.536Z,88.53
2023-01-26T13:03:19.316Z,80.97
2023-01-26T13:06:10.685Z,83.93
2023-01-26T13:08:58.714Z,97.00
2023-01-26T13:11:45.191Z,76.60
2023-01-26T13:14:30.264Z,73.60
2023-01-26T13:17:15.775Z,76.03
2023-01-26T13:20:15.828Z,71.97
2023-01-26T13:23:00.961Z,75.17
2023-01-26T13:26:10.227Z,73.47
2023-01-26T13:29:27.326Z,75.67
2023-01-26T13:32:36.070Z,96.77
2023-01-26T13:35:24.182Z,70.80
2023-01-26T13:38:34.115Z,72.13
2023-01-26T13:41:20.763Z,62.17
2023-01-26T13:44:17.573Z,59.33
2023-01-26T13:47:12.276Z,59.47
2023-01-26T13:49:57.045Z,57.27
2023-01-26T13:52:42.205Z,63.33
2023-01-26T13:55:33.055Z,63.83
2023-01-26T13:58:18.977Z,62.80
2023-01-26T14:01:11.299Z,68.27
2023-01-26T14:04:05.237Z,75.07
2023-01-26T14:07:00.943Z,61.37
2023-01-26T14:09:54.726Z,61.33
2023-01-26T14:12:46.719Z,63.33
2023-01-26T14:15:33.075Z,54.03
2023-01-26T14:18:21.731Z,59.30
2023-01-26T14:21:19.696Z,60.27
2023-01-26T14:24:09.319Z,69.17
2023-01-26T14:26:55.073Z,71.97
2023-01-26T14:29:40.147Z,57.77
2023-01-26T14:32:26.396Z,60.60
2023-01-26T14:35:20.653Z,60.50
2023-01-26T14:38:12.511Z,75.87
2023-01-26T14:41:00.026Z,48.77
2023-01-26T14:43:45.682Z,56.03
2023-01-26T14:46:35.309Z,48.97
2023-01-26T14:49:56.173Z,49.43
2023-01-26T14:52:45.210Z,47.07
2023-01-26T14:55:36.687Z,53.30
2023-01-26T14:58:28.708Z,70.13
2023-01-26T15:01:24.954Z,52.83
2023-01-26T15:04:16.179Z,66.87
2023-01-26T15:07:32.208Z,56.80
2023-01-26T15:10:38.304Z,86.63
2023-01-26T15:13:25.380Z,60.77
2023-01-26T15:16:21.729Z,55.30
2023-01-26T15:19:07.151Z,49.23
2023-01-26T15:21:53.209Z,46.07
2023-01-26T15:24:38.303Z,53.77
2023-01-26T15:27:23.158Z,74.83
2023-01-26T15:30:16.877Z,80.17
2023-01-26T15:33:02.628Z,59.27
2023-01-26T15:35:58.011Z,55.57
2023-01-26T15:38:43.206Z,53.07
2023-01-26T15:41:29.372Z,76.90
2023-01-26T15:44:17.491Z,136.40
2023-01-26T15:47:02.775Z,116.27
2023-01-26T15:49:48.102Z,96.97
2023-01-26T15:52:33.153Z,81.67
2023-01-26T15:55:26.137Z,121.83
2023-01-26T15:58:11.329Z,69.33
2023-01-26T16:00:57.214Z,113.67
2023-01-26T16:03:42.792Z,187.83
2023-01-26T16:06:30.973Z,257.57
2023-01-26T16:09:16.359Z,101.70
2023-01-26T16:12:01.871Z,133.30
2023-01-26T16:14:47.247Z,82.40
2023-01-26T16:17:32.742Z,193.87
2023-01-26T16:20:18.760Z,200.30
2023-01-26T16:23:06.618Z,257.07
2023-01-26T16:25:52.533Z,99.73
2023-01-26T16:28:37.630Z,234.37
2023-01-26T16:31:25.818Z,132.80
2023-01-26T16:34:11.389Z,296.80
2023-01-26T16:36:56.576Z,164.77
2023-01-26T16:39:41.631Z,284.63
2023-01-26T16:42:27.067Z,233.83
2023-01-26T16:45:26.057Z,401.40
2023-01-26T16:48:16.193Z,122.47
2023-01-26T16:51:18.468Z,216.47
2023-01-26T16:54:03.409Z,280.03
2023-01-26T16:56:48.545Z,215.50
2023-01-26T16:59:33.880Z,482.63
2023-01-26T17:02:25.906Z,118.17
2023-01-26T17:05:15.592Z,195.67
2023-01-26T17:08:00.723Z,107.47
2023-01-26T17:10:59.859Z,128.33
2023-01-26T17:13:47.449Z,95.63
2023-01-26T17:16:32.304Z,100.80
2023-01-26T17:19:17.569Z,93.43
2023-01-26T17:22:03.169Z,320.23
2023-01-26T17:24:48.612Z,140.77
2023-01-26T17:27:34.464Z,367.00
2023-01-26T17:30:19.689Z,132.30
2023-01-26T17:33:05.167Z,130.80
2023-01-26T17:35:59.445Z,118.43
2023-01-26T17:38:45.356Z,104.87
2023-01-26T17:41:30.389Z,473.40
2023-01-26T17:44:15.347Z,494.20
2023-01-26T17:47:00.799Z,352.97
2023-01-26T17:49:46.450Z,390.80
2023-01-26T17:52:31.999Z,163.37
2023-01-26T17:55:16.995Z,120.03
2023-01-26T17:58:02.141Z,127.80
2023-01-26T18:00:47.514Z,502.50
2023-01-26T18:03:33.003Z,325.43
2023-01-26T18:06:18.205Z,360.23
2023-01-26T18:09:03.204Z,533.27
2023-01-26T18:11:48.496Z,224.27
2023-01-26T18:14:33.221Z,374.43
2023-01-26T18:17:18.172Z,317.43
2023-01-26T18:20:05.308Z,566.57
2023-01-26T18:22:50.524Z,454.33
2023-01-26T18:25:35.395Z,522.50
2023-01-26T18:28:20.285Z,537.53
2023-01-26T18:31:17.258Z,320.17
2023-01-26T18:34:04.118Z,371.93
2023-01-26T18:36:49.272Z,332.17
2023-01-26T18:39:34.161Z,478.47
2023-01-26T18:42:19.606Z,471.90
2023-01-26T18:45:04.874Z,457.03
2023-01-26T18:47:50.054Z,566.23
2023-01-26T18:50:35.445Z,218.60
2023-01-26T18:53:20.401Z,311.10
2023-01-26T18:56:07.029Z,233.37
2023-01-26T18:58:53.396Z,578.87
2023-01-26T19:01:39.102Z,512.30
2023-01-26T19:04:24.213Z,449.37
2023-01-26T19:07:09.659Z,393.47
2023-01-26T19:09:54.842Z,322.40
2023-01-26T19:12:39.832Z,402.00
2023-01-26T19:15:25.062Z,369.97
2023-01-26T19:18:10.473Z,319.40
2023-01-26T19:20:57.661Z,451.60
2023-01-26T19:23:43.611Z,351.77
2023-01-26T19:26:29.106Z,390.90
2023-01-26T19:29:14.090Z,350.97
2023-01-26T19:31:59.083Z,341.90
2023-01-26T19:34:44.213Z,352.30
2023-01-26T19:37:29.185Z,211.47
2023-01-26T19:40:14.573Z,173.17
2023-01-26T19:43:00.089Z,592.37
2023-01-26T19:45:49.506Z,402.93
2023-01-26T19:48:34.795Z,163.77
2023-01-26T19:51:23.094Z,281.90
2023-01-26T19:54:08.658Z,305.00
2023-01-26T19:56:53.805Z,166.17
2023-01-26T19:59:39.551Z,322.27
2023-01-26T20:02:25.044Z,152.00
2023-01-26T20:05:10.671Z,293.90
2023-01-26T20:07:55.705Z,212.03
2023-01-26T20:10:40.941Z,301.63
2023-01-26T20:13:26.339Z,186.27
2023-01-26T20:16:11.123Z,524.03
2023-01-26T20:18:57.994Z,172.00
2023-01-26T20:21:43.045Z,333.97
2023-01-26T20:24:28.569Z,229.77
2023-01-26T20:27:13.828Z,189.10
2023-01-26T20:29:59.197Z,205.57
2023-01-26T20:32:44.927Z,154.57
2023-01-26T20:35:30.543Z,177.60
2023-01-26T20:38:15.590Z,267.23
2023-01-26T20:41:06.531Z,235.17
2023-01-26T20:43:59.819Z,262.50
2023-01-26T20:46:46.625Z,156.47
2023-01-26T20:49:31.911Z,172.20
2023-01-26T20:52:16.819Z,136.43
2023-01-26T20:55:01.944Z,192.23
2023-01-26T20:57:47.014Z,220.63
2023-01-26T21:00:32.777Z,194.03
2023-01-26T21:03:19.993Z,140.37
2023-01-26T21:06:06.980Z,170.23
2023-01-26T21:08:55.214Z,140.93
2023-01-26T21:11:40.513Z,116.03
2023-01-26T21:14:25.695Z,134.87
2023-01-26T21:17:11.322Z,137.83
2023-01-26T21:19:56.537Z,153.57
2023-01-26T21:22:41.537Z,172.23
2023-01-26T21:25:26.749Z,551.07
2023-01-26T21:28:12.010Z,132.97
2023-01-26T21:31:02.512Z,119.63
2023-01-26T21:33:49.034Z,113.07
2023-01-26T21:36:34.087Z,103.13
2023-01-26T21:39:22.011Z,100.83
2023-01-26T21:42:07.517Z,123.80
2023-01-26T21:44:55.271Z,227.17
2023-01-26T21:47:40.872Z,172.97
2023-01-26T21:50:25.826Z,98.40
2023-01-26T21:53:10.848Z,122.67
2023-01-26T21:55:55.813Z,108.23
2023-01-26T21:58:40.937Z,123.77
2023-01-26T22:01:26.378Z,106.07
2023-01-26T22:04:17.398Z,101.27
2023-01-26T22:07:02.593Z,98.07
2023-01-26T22:09:47.985Z,107.40
2023-01-26T22:12:32.970Z,95.57
2023-01-26T22:15:18.293Z,114.83
2023-01-26T22:18:03.151Z,94.10
2023-01-26T22:20:48.926Z,93.10
2023-01-26T22:23:36.406Z,93.17
2023-01-26T22:26:22.913Z,80.73
2023-01-26T22:29:10.168Z,84.53
2023-01-26T22:31:55.104Z,66.23
2023-01-26T22:34:40.142Z,62.47
2023-01-26T22:37:25.364Z,58.00
2023-01-26T22:40:11.415Z,63.93
2023-01-26T22:42:56.788Z,73.33
2023-01-26T22:45:42.400Z,67.93
2023-01-26T22:48:27.645Z,70.43
2023-01-26T22:51:18.002Z,75.37
2023-01-26T22:54:04.440Z,80.77
2023-01-26T22:56:49.661Z,75.17
2023-01-26T22:59:34.759Z,61.70
2023-01-26T23:02:19.873Z,45.20
2023-01-26T23:05:05.448Z,39.57
2023-01-26T23:07:50.916Z,39.40
2023-01-26T23:10:36.276Z,35.70
2023-01-26T23:13:21.551Z,37.30
2023-01-26T23:16:07.012Z,36.40
2023-01-26T23:18:54.023Z,40.60
2023-01-26T23:21:39.322Z,40.37
2023-01-26T23:24:24.383Z,47.60
2023-01-26T23:27:09.550Z,48.40
2023-01-26T23:29:54.439Z,48.40
2023-01-26T23:32:39.344Z,49.27
2023-01-26T23:35:26.443Z,49.80
2023-01-26T23:38:11.818Z,49.47
2023-01-26T23:40:57.722Z,50.33
2023-01-26T23:43:43.202Z,50.13
2023-01-26T23:46:28.159Z,54.27
2023-01-26T23:49:13.404Z,53.33
2023-01-26T23:51:58.205Z,55.13
2023-01-26T23:54:43.356Z,55.67
2023-01-26T23:57:28.603Z,58.87
